Terminal Aerodrome Forecast
Issued by NWS

Home | Current Version | Previous Version | Text Only | Print | Product List | Glossary On
Versions: 1 2 3 4 5 6 7 8 9 10 11 12 13 14 15 16
000
FTUS44 KMAF 311122
TAFCNM
TAF
KCNM 311122Z 3112/0112 16006KT P6SM FEW250
     FM311700 15010G18KT P6SM FEW100
     FM010100 15007KT P6SM SCT250=

USA.gov is the U.S. government's official web portal to all federal, state and local government web resources and services.